sensor_id;sensor_type;location;lat;lon;timestamp;temperature;humidity
6879;DHT22;3478;51.462;7.338;2022-09-01T00:02:06;18.30;99.90
6879;DHT22;3478;51.462;7.338;2022-09-01T00:07:11;18.10;99.90
6879;DHT22;3478;51.462;7.338;2022-09-01T00:12:13;18.20;99.90
6879;DHT22;3478;51.462;7.338;2022-09-01T00:17:15;18.20;99.90
6879;DHT22;3478;51.462;7.338;2022-09-01T00:22:19;18.20;99.90
6879;DHT22;3478;51.462;7.338;2022-09-01T00:27:21;18.10;99.90
6879;DHT22;3478;51.462;7.338;2022-09-01T00:32:22;18.20;99.90
6879;DHT22;3478;51.462;7.338;2022-09-01T00:37:26;18.20;99.90
6879;DHT22;3478;51.462;7.338;2022-09-01T00:42:28;18.20;99.90
6879;DHT22;3478;51.462;7.338;2022-09-01T00:47:30;18.20;99.90
6879;DHT22;3478;51.462;7.338;2022-09-01T00:52:39;18.20;99.90
6879;DHT22;3478;51.462;7.338;2022-09-01T00:57:42;18.10;99.90
6879;DHT22;3478;51.462;7.338;2022-09-01T01:02:45;18.00;99.90
6879;DHT22;3478;51.462;7.338;2022-09-01T01:07:49;17.80;99.90
6879;DHT22;3478;51.462;7.338;2022-09-01T01:12:51;17.90;99.90
6879;DHT22;3478;51.462;7.338;2022-09-01T01:17:53;17.80;99.90
6879;DHT22;3478;51.462;7.338;2022-09-01T01:23:04;17.70;99.90
6879;DHT22;3478;51.462;7.338;2022-09-01T01:28:14;17.60;99.90
6879;DHT22;3478;51.462;7.338;2022-09-01T01:33:16;17.40;99.90
6879;DHT22;3478;51.462;7.338;2022-09-01T01:38:19;17.40;99.90
6879;DHT22;3478;51.462;7.338;2022-09-01T01:43:24;17.30;99.90
6879;DHT22;3478;51.462;7.338;2022-09-01T01:48:27;17.20;99.90
6879;DHT22;3478;51.462;7.338;2022-09-01T01:53:29;17.10;99.90
6879;DHT22;3478;51.462;7.338;2022-09-01T01:58:33;17.10;99.90
6879;DHT22;3478;51.462;7.338;2022-09-01T02:03:35;17.00;99.90
6879;DHT22;3478;51.462;7.338;2022-09-01T02:08:38;16.80;99.90
6879;DHT22;3478;51.462;7.338;2022-09-01T02:13:42;16.80;99.90
6879;DHT22;3478;51.462;7.338;2022-09-01T02:18:45;16.80;99.90
6879;DHT22;3478;51.462;7.338;2022-09-01T02:23:49;16.70;99.90
6879;DHT22;3478;51.462;7.338;2022-09-01T02:29:04;16.50;99.90
6879;DHT22;3478;51.462;7.338;2022-09-01T02:34:07;16.40;99.90
6879;DHT22;3478;51.462;7.338;2022-09-01T02:39:14;16.40;99.90
6879;DHT22;3478;51.462;7.338;2022-09-01T02:44:18;16.30;99.90
6879;DHT22;3478;51.462;7.338;2022-09-01T02:49:23;16.20;99.90
6879;DHT22;3478;51.462;7.338;2022-09-01T02:54:29;16.20;99.90
6879;DHT22;3478;51.462;7.338;2022-09-01T02:59:32;16.00;99.90
6879;DHT22;3478;51.462;7.338;2022-09-01T03:04:35;16.00;99.90
6879;DHT22;3478;51.462;7.338;2022-09-01T03:09:38;16.00;99.90
6879;DHT22;3478;51.462;7.338;2022-09-01T03:14:42;15.90;99.90
6879;DHT22;3478;51.462;7.338;2022-09-01T03:19:44;15.90;99.90
6879;DHT22;3478;51.462;7.338;2022-09-01T03:24:46;15.90;99.90
6879;DHT22;3478;51.462;7.338;2022-09-01T03:29:49;15.90;99.90
6879;DHT22;3478;51.462;7.338;2022-09-01T03:34:51;15.80;99.90
6879;DHT22;3478;51.462;7.338;2022-09-01T03:39:53;15.70;99.90
6879;DHT22;3478;51.462;7.338;2022-09-01T03:44:56;15.50;99.90
6879;DHT22;3478;51.462;7.338;2022-09-01T03:49:58;15.50;99.90
6879;DHT22;3478;51.462;7.338;2022-09-01T03:55:01;15.40;99.90
6879;DHT22;3478;51.462;7.338;2022-09-01T04:00:06;15.50;99.90
6879;DHT22;3478;51.462;7.338;2022-09-01T04:05:10;15.50;99.90
6879;DHT22;3478;51.462;7.338;2022-09-01T04:10:13;15.60;99.90
6879;DHT22;3478;51.462;7.338;2022-09-01T04:15:17;15.80;99.90
6879;DHT22;3478;51.462;7.338;2022-09-01T04:20:20;15.80;99.90
6879;DHT22;3478;51.462;7.338;2022-09-01T04:25:23;15.80;99.90
6879;DHT22;3478;51.462;7.338;2022-09-01T04:30:27;15.60;99.90
6879;DHT22;3478;51.462;7.338;2022-09-01T04:35:31;15.60;99.90
6879;DHT22;3478;51.462;7.338;2022-09-01T04:40:38;15.60;99.90
6879;DHT22;3478;51.462;7.338;2022-09-01T04:45:41;15.50;99.90
6879;DHT22;3478;51.462;7.338;2022-09-01T04:50:44;15.50;99.90
6879;DHT22;3478;51.462;7.338;2022-09-01T04:55:47;15.40;99.90
6879;DHT22;3478;51.462;7.338;2022-09-01T05:00:50;15.40;99.90
6879;DHT22;3478;51.462;7.338;2022-09-01T05:05:52;15.40;99.90
6879;DHT22;3478;51.462;7.338;2022-09-01T05:10:55;15.40;99.90
6879;DHT22;3478;51.462;7.338;2022-09-01T05:16:04;15.50;99.90
6879;DHT22;3478;51.462;7.338;2022-09-01T05:21:08;15.40;99.90
6879;DHT22;3478;51.462;7.338;2022-09-01T05:26:12;15.50;99.90
6879;DHT22;3478;51.462;7.338;2022-09-01T05:31:19;15.50;99.90
6879;DHT22;3478;51.462;7.338;2022-09-01T05:36:25;15.60;99.90
6879;DHT22;3478;51.462;7.338;2022-09-01T05:41:33;15.70;99.90
6879;DHT22;3478;51.462;7.338;2022-09-01T05:46:37;15.70;99.90
6879;DHT22;3478;51.462;7.338;2022-09-01T05:51:41;15.80;99.90
6879;DHT22;3478;51.462;7.338;2022-09-01T05:56:44;15.90;99.90
6879;DHT22;3478;51.462;7.338;2022-09-01T06:01:48;16.00;99.90
6879;DHT22;3478;51.462;7.338;2022-09-01T06:06:50;16.10;99.90
6879;DHT22;3478;51.462;7.338;2022-09-01T06:11:52;16.30;99.90
6879;DHT22;3478;51.462;7.338;2022-09-01T06:16:57;16.40;99.90
6879;DHT22;3478;51.462;7.338;2022-09-01T06:22:00;16.70;99.90
6879;DHT22;3478;51.462;7.338;2022-09-01T07:42:57;19.20;99.90
6879;DHT22;3478;51.462;7.338;2022-09-01T07:48:04;19.10;99.90
6879;DHT22;3478;51.462;7.338;2022-09-01T07:53:06;19.20;99.90
6879;DHT22;3478;51.462;7.338;2022-09-01T07:58:08;19.40;99.90
6879;DHT22;3478;51.462;7.338;2022-09-01T08:03:11;19.50;99.90
6879;DHT22;3478;51.462;7.338;2022-09-01T08:08:14;19.50;99.90
6879;DHT22;3478;51.462;7.338;2022-09-01T08:13:16;19.50;99.90
6879;DHT22;3478;51.462;7.338;2022-09-01T08:18:20;19.80;99.90
6879;DHT22;3478;51.462;7.338;2022-09-01T08:23:23;20.00;99.90
6879;DHT22;3478;51.462;7.338;2022-09-01T08:28:26;20.20;99.90
6879;DHT22;3478;51.462;7.338;2022-09-01T08:33:30;20.30;99.90
6879;DHT22;3478;51.462;7.338;2022-09-01T08:38:35;20.50;99.90
6879;DHT22;3478;51.462;7.338;2022-09-01T08:43:53;20.70;99.90
6879;DHT22;3478;51.462;7.338;2022-09-01T08:49:00;20.80;99.90
6879;DHT22;3478;51.462;7.338;2022-09-01T08:54:09;20.90;99.90
6879;DHT22;3478;51.462;7.338;2022-09-01T08:59:16;21.00;99.50
6879;DHT22;3478;51.462;7.338;2022-09-01T09:04:29;21.10;99.30
6879;DHT22;3478;51.462;7.338;2022-09-01T09:09:38;21.40;99.10
6879;DHT22;3478;51.462;7.338;2022-09-01T09:14:53;21.60;98.10
6879;DHT22;3478;51.462;7.338;2022-09-01T09:20:03;21.70;97.20
6879;DHT22;3478;51.462;7.338;2022-09-01T09:25:07;21.80;98.10
6879;DHT22;3478;51.462;7.338;2022-09-01T09:30:12;21.90;96.10
6879;DHT22;3478;51.462;7.338;2022-09-01T09:35:23;22.10;97.00
6879;DHT22;3478;51.462;7.338;2022-09-01T09:40:25;22.40;96.80
6879;DHT22;3478;51.462;7.338;2022-09-01T09:45:29;22.70;95.70
6879;DHT22;3478;51.462;7.338;2022-09-01T09:50:37;23.00;95.10
6879;DHT22;3478;51.462;7.338;2022-09-01T09:55:52;23.40;95.40
6879;DHT22;3478;51.462;7.338;2022-09-01T10:01:00;23.60;93.30
6879;DHT22;3478;51.462;7.338;2022-09-01T10:06:10;23.90;93.40
6879;DHT22;3478;51.462;7.338;2022-09-01T10:11:25;24.30;93.40
6879;DHT22;3478;51.462;7.338;2022-09-01T10:16:30;24.70;93.60
6879;DHT22;3478;51.462;7.338;2022-09-01T10:21:37;25.20;91.40
6879;DHT22;3478;51.462;7.338;2022-09-01T10:26:41;25.50;91.60
6879;DHT22;3478;51.462;7.338;2022-09-01T10:31:47;26.00;87.90
6879;DHT22;3478;51.462;7.338;2022-09-01T10:36:50;26.20;88.20
6879;DHT22;3478;51.462;7.338;2022-09-01T10:41:54;26.40;86.00
6879;DHT22;3478;51.462;7.338;2022-09-01T10:47:00;26.60;81.30
6879;DHT22;3478;51.462;7.338;2022-09-01T10:52:04;26.20;83.20
6879;DHT22;3478;51.462;7.338;2022-09-01T10:57:08;26.50;84.10
6879;DHT22;3478;51.462;7.338;2022-09-01T11:02:13;27.40;81.30
6879;DHT22;3478;51.462;7.338;2022-09-01T11:07:31;27.50;78.60
6879;DHT22;3478;51.462;7.338;2022-09-01T11:12:48;27.50;75.90
6879;DHT22;3478;51.462;7.338;2022-09-01T11:17:58;28.60;74.50
6879;DHT22;3478;51.462;7.338;2022-09-01T11:23:04;29.60;70.80
6879;DHT22;3478;51.462;7.338;2022-09-01T11:33:55;30.00;65.40
6879;DHT22;3478;51.462;7.338;2022-09-01T11:39:07;30.00;65.30
6879;DHT22;3478;51.462;7.338;2022-09-01T11:44:22;30.80;66.10
6879;DHT22;3478;51.462;7.338;2022-09-01T11:49:30;30.40;60.80
6879;DHT22;3478;51.462;7.338;2022-09-01T11:54:40;30.00;61.40
6879;DHT22;3478;51.462;7.338;2022-09-01T11:59:42;30.00;60.90
6879;DHT22;3478;51.462;7.338;2022-09-01T12:04:45;30.10;61.40
6879;DHT22;3478;51.462;7.338;2022-09-01T12:09:48;30.90;60.50
6879;DHT22;3478;51.462;7.338;2022-09-01T12:14:55;32.00;59.40
6879;DHT22;3478;51.462;7.338;2022-09-01T12:20:19;32.50;55.60
6879;DHT22;3478;51.462;7.338;2022-09-01T12:25:25;32.30;56.90
6879;DHT22;3478;51.462;7.338;2022-09-01T12:30:27;32.10;55.10
6879;DHT22;3478;51.462;7.338;2022-09-01T12:35:29;32.60;55.00
6879;DHT22;3478;51.462;7.338;2022-09-01T12:40:34;33.10;52.50
6879;DHT22;3478;51.462;7.338;2022-09-01T12:45:39;33.70;52.40
6879;DHT22;3478;51.462;7.338;2022-09-01T12:50:43;34.60;50.80
6879;DHT22;3478;51.462;7.338;2022-09-01T12:56:17;34.60;49.50
6879;DHT22;3478;51.462;7.338;2022-09-01T13:01:26;34.10;49.10
6879;DHT22;3478;51.462;7.338;2022-09-01T13:06:29;34.70;48.40
6879;DHT22;3478;51.462;7.338;2022-09-01T13:11:32;34.40;46.90
6879;DHT22;3478;51.462;7.338;2022-09-01T13:16:35;34.40;47.20
6879;DHT22;3478;51.462;7.338;2022-09-01T13:21:37;35.20;46.10
6879;DHT22;3478;51.462;7.338;2022-09-01T13:26:41;35.30;45.00
6879;DHT22;3478;51.462;7.338;2022-09-01T13:31:55;36.00;44.40
6879;DHT22;3478;51.462;7.338;2022-09-01T13:36:57;35.80;43.40
6879;DHT22;3478;51.462;7.338;2022-09-01T13:42:00;36.00;44.00
6879;DHT22;3478;51.462;7.338;2022-09-01T13:47:02;35.30;42.80
6879;DHT22;3478;51.462;7.338;2022-09-01T13:52:04;35.50;42.50
6879;DHT22;3478;51.462;7.338;2022-09-01T13:57:09;35.20;42.40
6879;DHT22;3478;51.462;7.338;2022-09-01T14:02:11;35.40;43.30
6879;DHT22;3478;51.462;7.338;2022-09-01T14:07:13;35.90;41.90
6879;DHT22;3478;51.462;7.338;2022-09-01T14:12:17;36.10;41.50
6879;DHT22;3478;51.462;7.338;2022-09-01T14:17:19;35.70;41.10
6879;DHT22;3478;51.462;7.338;2022-09-01T14:22:20;34.30;43.00
6879;DHT22;3478;51.462;7.338;2022-09-01T14:27:24;34.90;42.60
6879;DHT22;3478;51.462;7.338;2022-09-01T14:32:26;35.90;41.00
6879;DHT22;3478;51.462;7.338;2022-09-01T14:37:29;36.50;41.10
6879;DHT22;3478;51.462;7.338;2022-09-01T14:42:32;36.50;40.10
6879;DHT22;3478;51.462;7.338;2022-09-01T14:47:36;36.40;40.40
6879;DHT22;3478;51.462;7.338;2022-09-01T14:52:39;36.30;40.00
6879;DHT22;3478;51.462;7.338;2022-09-01T14:57:42;36.60;39.70
6879;DHT22;3478;51.462;7.338;2022-09-01T15:02:44;35.90;39.40
6879;DHT22;3478;51.462;7.338;2022-09-01T15:07:46;35.70;39.10
6879;DHT22;3478;51.462;7.338;2022-09-01T15:12:50;36.30;39.60
6879;DHT22;3478;51.462;7.338;2022-09-01T15:17:52;36.10;38.60
6879;DHT22;3478;51.462;7.338;2022-09-01T15:22:54;35.80;38.80
6879;DHT22;3478;51.462;7.338;2022-09-01T15:27:58;35.70;39.00
6879;DHT22;3478;51.462;7.338;2022-09-01T15:33:02;35.30;38.90
6879;DHT22;3478;51.462;7.338;2022-09-01T15:38:04;35.00;39.00
6879;DHT22;3478;51.462;7.338;2022-09-01T15:43:08;34.70;39.70
6879;DHT22;3478;51.462;7.338;2022-09-01T15:48:11;35.10;39.00
6879;DHT22;3478;51.462;7.338;2022-09-01T15:53:13;35.30;38.30
6879;DHT22;3478;51.462;7.338;2022-09-01T15:58:17;35.30;38.40
6879;DHT22;3478;51.462;7.338;2022-09-01T16:03:19;35.00;38.80
6879;DHT22;3478;51.462;7.338;2022-09-01T16:08:23;34.10;39.00
6879;DHT22;3478;51.462;7.338;2022-09-01T16:13:27;34.10;39.00
6879;DHT22;3478;51.462;7.338;2022-09-01T16:18:33;34.10;39.60
6879;DHT22;3478;51.462;7.338;2022-09-01T16:23:44;34.10;39.30
6879;DHT22;3478;51.462;7.338;2022-09-01T16:28:51;33.70;39.50
6879;DHT22;3478;51.462;7.338;2022-09-01T16:33:57;33.70;39.70
6879;DHT22;3478;51.462;7.338;2022-09-01T16:39:07;33.90;39.70
6879;DHT22;3478;51.462;7.338;2022-09-01T16:44:27;33.40;39.20
6879;DHT22;3478;51.462;7.338;2022-09-01T16:49:35;33.10;39.80
6879;DHT22;3478;51.462;7.338;2022-09-01T16:54:53;32.70;40.80
6879;DHT22;3478;51.462;7.338;2022-09-01T16:59:59;31.90;41.10
6879;DHT22;3478;51.462;7.338;2022-09-01T17:05:09;30.90;42.40
6879;DHT22;3478;51.462;7.338;2022-09-01T17:10:20;30.70;43.40
6879;DHT22;3478;51.462;7.338;2022-09-01T17:15:30;30.50;43.90
6879;DHT22;3478;51.462;7.338;2022-09-01T17:20:42;29.60;44.40
6879;DHT22;3478;51.462;7.338;2022-09-01T17:25:51;29.10;45.80
6879;DHT22;3478;51.462;7.338;2022-09-01T17:31:04;28.30;46.90
6879;DHT22;3478;51.462;7.338;2022-09-01T17:36:18;26.90;48.60
6879;DHT22;3478;51.462;7.338;2022-09-01T17:41:31;26.00;50.50
6879;DHT22;3478;51.462;7.338;2022-09-01T17:46:41;25.40;52.10
6879;DHT22;3478;51.462;7.338;2022-09-01T17:51:51;24.80;52.50
6879;DHT22;3478;51.462;7.338;2022-09-01T17:56:59;24.50;53.40
6879;DHT22;3478;51.462;7.338;2022-09-01T18:02:19;24.30;53.60
6879;DHT22;3478;51.462;7.338;2022-09-01T18:07:42;24.00;55.00
6879;DHT22;3478;51.462;7.338;2022-09-01T18:12:53;23.80;54.90
6879;DHT22;3478;51.462;7.338;2022-09-01T18:18:05;23.50;55.30
6879;DHT22;3478;51.462;7.338;2022-09-01T18:23:12;23.40;55.50
6879;DHT22;3478;51.462;7.338;2022-09-01T18:28:16;23.20;55.80
6879;DHT22;3478;51.462;7.338;2022-09-01T18:33:28;23.00;56.10
6879;DHT22;3478;51.462;7.338;2022-09-01T18:38:37;22.90;56.30
6879;DHT22;3478;51.462;7.338;2022-09-01T18:43:43;22.70;56.80
6879;DHT22;3478;51.462;7.338;2022-09-01T18:49:01;22.70;57.00
6879;DHT22;3478;51.462;7.338;2022-09-01T18:54:11;22.60;57.10
6879;DHT22;3478;51.462;7.338;2022-09-01T19:04:46;22.20;57.90
6879;DHT22;3478;51.462;7.338;2022-09-01T19:09:56;22.10;57.80
6879;DHT22;3478;51.462;7.338;2022-09-01T19:15:03;22.10;58.30
6879;DHT22;3478;51.462;7.338;2022-09-01T19:20:11;21.90;58.30
6879;DHT22;3478;51.462;7.338;2022-09-01T19:25:17;21.90;58.80
6879;DHT22;3478;51.462;7.338;2022-09-01T19:30:41;21.70;59.20
6879;DHT22;3478;51.462;7.338;2022-09-01T19:35:48;21.60;59.40
6879;DHT22;3478;51.462;7.338;2022-09-01T19:40:53;21.50;59.80
6879;DHT22;3478;51.462;7.338;2022-09-01T19:46:07;21.40;59.80
6879;DHT22;3478;51.462;7.338;2022-09-01T19:51:16;21.30;59.70
6879;DHT22;3478;51.462;7.338;2022-09-01T19:56:22;21.30;59.80
6879;DHT22;3478;51.462;7.338;2022-09-01T20:01:37;21.20;59.90
6879;DHT22;3478;51.462;7.338;2022-09-01T20:06:45;21.10;61.20
6879;DHT22;3478;51.462;7.338;2022-09-01T20:11:52;21.00;61.60
6879;DHT22;3478;51.462;7.338;2022-09-01T20:17:00;20.90;61.50
6879;DHT22;3478;51.462;7.338;2022-09-01T20:22:13;20.80;62.10
6879;DHT22;3478;51.462;7.338;2022-09-01T20:27:29;20.60;63.40
6879;DHT22;3478;51.462;7.338;2022-09-01T20:32:38;20.50;63.30
6879;DHT22;3478;51.462;7.338;2022-09-01T20:37:46;20.30;63.80
6879;DHT22;3478;51.462;7.338;2022-09-01T20:43:02;20.30;64.40
6879;DHT22;3478;51.462;7.338;2022-09-01T20:48:11;20.20;64.60
6879;DHT22;3478;51.462;7.338;2022-09-01T20:53:28;20.10;65.00
6879;DHT22;3478;51.462;7.338;2022-09-01T20:58:34;20.00;65.30
6879;DHT22;3478;51.462;7.338;2022-09-01T21:03:44;19.90;65.50
6879;DHT22;3478;51.462;7.338;2022-09-01T21:08:53;19.90;65.80
6879;DHT22;3478;51.462;7.338;2022-09-01T21:14:08;19.80;65.90
6879;DHT22;3478;51.462;7.338;2022-09-01T21:19:17;19.70;66.30
6879;DHT22;3478;51.462;7.338;2022-09-01T21:24:23;19.60;66.80
6879;DHT22;3478;51.462;7.338;2022-09-01T21:29:30;19.60;66.80
6879;DHT22;3478;51.462;7.338;2022-09-01T21:34:35;19.60;66.90
6879;DHT22;3478;51.462;7.338;2022-09-01T21:39:38;19.50;66.50
6879;DHT22;3478;51.462;7.338;2022-09-01T21:44:41;19.40;66.90
6879;DHT22;3478;51.462;7.338;2022-09-01T21:49:44;19.40;67.10
6879;DHT22;3478;51.462;7.338;2022-09-01T21:54:47;19.30;66.70
6879;DHT22;3478;51.462;7.338;2022-09-01T21:59:49;19.20;67.50
6879;DHT22;3478;51.462;7.338;2022-09-01T22:04:52;19.10;68.10
6879;DHT22;3478;51.462;7.338;2022-09-01T22:09:55;19.00;68.80
6879;DHT22;3478;51.462;7.338;2022-09-01T22:14:57;18.80;69.60
6879;DHT22;3478;51.462;7.338;2022-09-01T22:20:00;18.70;70.40
6879;DHT22;3478;51.462;7.338;2022-09-01T22:25:07;18.70;70.80
6879;DHT22;3478;51.462;7.338;2022-09-01T22:30:10;18.60;70.60
6879;DHT22;3478;51.462;7.338;2022-09-01T22:35:13;18.60;71.70
6879;DHT22;3478;51.462;7.338;2022-09-01T22:40:18;18.50;71.80
6879;DHT22;3478;51.462;7.338;2022-09-01T22:45:20;18.40;72.10
6879;DHT22;3478;51.462;7.338;2022-09-01T22:50:22;18.30;72.50
6879;DHT22;3478;51.462;7.338;2022-09-01T22:55:25;18.20;73.70
6879;DHT22;3478;51.462;7.338;2022-09-01T23:00:27;18.20;73.70
6879;DHT22;3478;51.462;7.338;2022-09-01T23:05:30;18.10;74.20
6879;DHT22;3478;51.462;7.338;2022-09-01T23:10:34;18.00;74.00
6879;DHT22;3478;51.462;7.338;2022-09-01T23:15:35;17.90;74.70
6879;DHT22;3478;51.462;7.338;2022-09-01T23:20:37;17.80;74.80
6879;DHT22;3478;51.462;7.338;2022-09-01T23:25:41;17.80;75.20
6879;DHT22;3478;51.462;7.338;2022-09-01T23:30:45;17.70;75.80
6879;DHT22;3478;51.462;7.338;2022-09-01T23:35:50;17.70;76.70
6879;DHT22;3478;51.462;7.338;2022-09-01T23:40:55;17.60;77.20
6879;DHT22;3478;51.462;7.338;2022-09-01T23:45:58;17.60;77.50
6879;DHT22;3478;51.462;7.338;2022-09-01T23:51:05;17.50;77.20
6879;DHT22;3478;51.462;7.338;2022-09-01T23:56:13;17.40;77.40
